createdAt,value
2017-01-23T00:00:31.337Z,-0.61
2017-01-23T00:01:31.349Z,-0.51
2017-01-23T00:03:31.374Z,-0.61
2017-01-23T00:04:31.389Z,-0.54
2017-01-23T00:06:46.334Z,-0.64
2017-01-23T00:07:46.348Z,-0.67
2017-01-23T00:08:31.444Z,-0.55
2017-01-23T00:09:31.458Z,-0.55
2017-01-23T00:10:31.469Z,-0.54
2017-01-23T00:11:31.482Z,-0.54
2017-01-23T00:12:46.414Z,-0.57
2017-01-23T00:13:31.510Z,-0.61
2017-01-23T00:14:31.522Z,-0.65
2017-01-23T00:15:31.550Z,-0.7
2017-01-23T00:16:31.549Z,-0.55
2017-01-23T00:17:31.563Z,-0.65
2017-01-23T00:18:31.576Z,-0.55
2017-01-23T00:21:31.618Z,-0.58
2017-01-23T00:22:46.548Z,-0.58
2017-01-23T00:23:31.649Z,-0.6
2017-01-23T00:24:31.656Z,-0.73
2017-01-23T00:25:31.685Z,-0.65
2017-01-23T00:26:31.683Z,-0.72
2017-01-23T00:27:31.695Z,-0.62
2017-01-23T00:28:46.627Z,-0.67
2017-01-23T00:29:31.733Z,-0.67
2017-01-23T00:30:31.734Z,-0.67
2017-01-23T00:31:31.775Z,-0.61
2017-01-23T00:32:31.761Z,-0.73
2017-01-23T00:33:31.779Z,-0.62
2017-01-23T00:34:31.789Z,-0.73
2017-01-23T00:36:31.868Z,-0.58
2017-01-23T00:37:31.829Z,-0.55
2017-01-23T00:38:31.841Z,-0.55
2017-01-23T00:39:31.862Z,-0.4
2017-01-23T00:40:31.877Z,-0.61
2017-01-23T00:41:31.882Z,-0.61
2017-01-23T00:42:31.900Z,-0.6
2017-01-23T00:43:46.828Z,-0.58
2017-01-23T00:44:31.925Z,-0.67
2017-01-23T00:45:31.937Z,-0.58
2017-01-23T00:46:31.950Z,-0.67
2017-01-23T00:48:31.976Z,-0.65
2017-01-23T00:49:31.989Z,-0.64
2017-01-23T00:50:32.003Z,-0.6
2017-01-23T00:53:32.042Z,-0.67
2017-01-23T00:54:32.057Z,-0.65
2017-01-23T00:55:32.074Z,-0.64
2017-01-23T00:56:32.083Z,-0.69
2017-01-23T00:57:32.094Z,-0.67
2017-01-23T00:58:32.110Z,-0.67
2017-01-23T00:59:32.120Z,-0.75
2017-01-23T01:00:32.141Z,-0.67
2017-01-23T01:01:32.148Z,-0.67
2017-01-23T01:02:32.160Z,-0.67
2017-01-23T01:03:32.171Z,-0.69
2017-01-23T01:04:32.187Z,-0.6
2017-01-23T01:05:32.201Z,-0.7
2017-01-23T01:06:32.240Z,-0.61
2017-01-23T01:08:32.244Z,-0.64
2017-01-23T01:09:32.254Z,-0.61
2017-01-23T01:10:32.266Z,-0.61
2017-01-23T01:11:32.279Z,-0.61
2017-01-23T01:12:32.291Z,-0.79
2017-01-23T01:13:32.306Z,-0.72
2017-01-23T01:14:32.318Z,-0.64
2017-01-23T01:15:47.249Z,-0.8
2017-01-23T01:16:32.348Z,-0.78
2017-01-23T01:17:32.358Z,-0.83
2017-01-23T01:18:32.372Z,-0.76
2017-01-23T01:19:32.384Z,-0.79
2017-01-23T01:20:32.404Z,-0.83
2017-01-23T01:21:32.410Z,-0.92
2017-01-23T01:22:32.421Z,-0.94
2017-01-23T01:24:32.454Z,-0.79
2017-01-23T01:25:32.468Z,-0.79
2017-01-23T01:26:47.397Z,-0.69
2017-01-23T01:27:32.491Z,-0.75
2017-01-23T01:28:32.506Z,-0.64
2017-01-23T01:29:32.518Z,-0.82
2017-01-23T01:30:32.535Z,-0.85
2017-01-23T01:31:47.463Z,-0.79
2017-01-23T01:32:32.559Z,-0.83
2017-01-23T01:33:32.604Z,-0.83
2017-01-23T01:34:32.583Z,-0.94
2017-01-23T01:35:32.599Z,-0.94
2017-01-23T01:36:32.614Z,-0.76
2017-01-23T01:37:32.624Z,-0.82
2017-01-23T01:39:32.653Z,-0.94
2017-01-23T01:40:32.669Z,-0.91
2017-01-23T01:41:32.678Z,-0.83
2017-01-23T01:42:47.610Z,-0.79
2017-01-23T01:43:32.706Z,-0.8
2017-01-23T01:44:32.718Z,-0.92
2017-01-23T01:45:32.731Z,-0.91
2017-01-23T01:46:32.747Z,-0.95
2017-01-23T01:47:47.675Z,-0.99
2017-01-23T01:48:32.771Z,-0.95
2017-01-23T01:49:32.785Z,-1.04
2017-01-23T01:50:32.796Z,-1.01
2017-01-23T01:51:32.809Z,-0.95
2017-01-23T01:52:32.823Z,-0.99
2017-01-23T01:53:32.839Z,-1.05
2017-01-23T01:54:32.852Z,-1.09
2017-01-23T01:56:32.878Z,-0.95
2017-01-23T01:57:32.889Z,-0.98
2017-01-23T01:58:32.901Z,-1.07
2017-01-23T01:59:32.914Z,-1.1
2017-01-23T02:00:32.931Z,-1.04
2017-01-23T02:01:32.942Z,-1.09
2017-01-23T02:02:32.954Z,-1.09
2017-01-23T02:03:47.887Z,-1.04
2017-01-23T02:04:32.983Z,-1.19
2017-01-23T02:05:32.998Z,-1.16
2017-01-23T02:06:33.035Z,-1.28
2017-01-23T02:07:33.019Z,-1.22
2017-01-23T02:08:33.036Z,-1.17
2017-01-23T02:09:33.051Z,-1.16
2017-01-23T02:10:33.060Z,-1.13
2017-01-23T02:11:33.074Z,-1.2
2017-01-23T02:12:33.086Z,-1.13
2017-01-23T02:13:33.099Z,-1.02
2017-01-23T02:14:48.031Z,-1.17
2017-01-23T02:15:33.126Z,-1.12
2017-01-23T02:16:33.142Z,-1.12
2017-01-23T02:17:33.153Z,-1.2
2017-01-23T02:18:48.084Z,-1.23
2017-01-23T02:19:33.180Z,-1.17
2017-01-23T02:20:33.194Z,-1.16
2017-01-23T02:21:33.206Z,-1.07
2017-01-23T02:22:33.222Z,-1.13
2017-01-23T02:24:33.245Z,-1.22
2017-01-23T02:25:33.258Z,-1.17
2017-01-23T02:26:33.273Z,-1.07
2017-01-23T02:27:33.285Z,-1.07
2017-01-23T02:28:33.299Z,-1.07
2017-01-23T02:29:33.313Z,-0.99
2017-01-23T02:30:48.244Z,-1.04
2017-01-23T02:31:33.340Z,-0.98
2017-01-23T02:32:33.355Z,-1.05
2017-01-23T02:33:33.371Z,-1.1
2017-01-23T02:34:33.378Z,-0.95
2017-01-23T02:35:33.397Z,-1.05
2017-01-23T02:36:33.404Z,-0.95
2017-01-23T02:37:33.420Z,-0.99
2017-01-23T02:38:33.435Z,-1.05
2017-01-23T02:39:33.449Z,-0.97
2017-01-23T02:40:33.457Z,-0.98
2017-01-23T02:41:33.476Z,-0.92
2017-01-23T02:43:33.510Z,-0.91
2017-01-23T02:44:33.512Z,-0.99
2017-01-23T02:45:33.526Z,-0.94
2017-01-23T02:46:48.455Z,-0.89
2017-01-23T02:47:48.483Z,-0.95
2017-01-23T02:48:33.566Z,-0.89
2017-01-23T02:49:33.581Z,-0.92
2017-01-23T02:50:48.508Z,-0.97
2017-01-23T02:51:33.604Z,-0.98
2017-01-23T02:52:33.617Z,-1.02
2017-01-23T02:53:33.632Z,-1.09
2017-01-23T02:54:33.647Z,-1.13
2017-01-23T02:55:33.659Z,-1.23
2017-01-23T02:56:33.670Z,-1.2
2017-01-23T02:57:33.688Z,-1.31
2017-01-23T02:59:33.713Z,-1.23
2017-01-23T03:00:33.723Z,-1.16
2017-01-23T03:01:33.740Z,-1.2
2017-01-23T03:02:33.752Z,-1.23
2017-01-23T03:03:33.764Z,-1.25
2017-01-23T03:04:33.775Z,-1.16
2017-01-23T03:05:33.788Z,-1.09
2017-01-23T03:06:48.721Z,-1.1
2017-01-23T03:07:33.819Z,-1.2
2017-01-23T03:08:33.833Z,-1.15
2017-01-23T03:09:33.845Z,-1.07
2017-01-23T03:10:33.862Z,-1.04
2017-01-23T03:11:33.869Z,-1.02
2017-01-23T03:12:33.885Z,-1.17
2017-01-23T03:13:33.901Z,-1.17
2017-01-23T03:14:33.916Z,-1.13
2017-01-23T03:15:33.952Z,-1.25
2017-01-23T03:16:33.936Z,-1.2
2017-01-23T03:17:48.869Z,-1.25
2017-01-23T03:18:33.965Z,-1.35
2017-01-23T03:19:48.894Z,-1.37
2017-01-23T03:20:33.992Z,-1.35
2017-01-23T03:21:34.007Z,-1.4
2017-01-23T03:22:48.934Z,-1.54
2017-01-23T03:23:34.030Z,-1.55
2017-01-23T03:25:34.057Z,-1.64
2017-01-23T03:26:34.099Z,-1.73
2017-01-23T03:27:34.088Z,-1.72
2017-01-23T03:28:34.098Z,-1.7
2017-01-23T03:31:34.138Z,-1.64
2017-01-23T03:32:34.178Z,-1.69
2017-01-23T03:33:34.161Z,-1.69
2017-01-23T03:34:34.174Z,-1.64
2017-01-23T03:35:34.186Z,-1.73
2017-01-23T03:36:34.201Z,-1.64
2017-01-23T03:37:34.217Z,-1.7
2017-01-23T03:38:49.145Z,-1.59
2017-01-23T03:39:34.247Z,-1.64
2017-01-23T03:40:34.253Z,-1.55
2017-01-23T03:41:34.269Z,-1.79
2017-01-23T03:42:34.279Z,-1.69
2017-01-23T03:43:34.295Z,-1.74
2017-01-23T03:44:34.308Z,-1.74
2017-01-23T03:45:34.319Z,-1.72
2017-01-23T03:46:34.333Z,-1.76
2017-01-23T03:47:34.350Z,-1.49
2017-01-23T03:48:34.359Z,-1.58
2017-01-23T03:49:34.371Z,-1.62
2017-01-23T03:50:34.387Z,-1.46
2017-01-23T03:51:34.400Z,-1.61
2017-01-23T03:52:34.411Z,-1.56
2017-01-23T03:53:49.343Z,-1.56
2017-01-23T03:55:34.450Z,-1.59
2017-01-23T03:56:34.463Z,-1.51
2017-01-23T03:57:34.488Z,-1.4
2017-01-23T03:58:34.500Z,-1.49
2017-01-23T03:59:34.503Z,-1.48
2017-01-23T04:00:34.520Z,-1.69
2017-01-23T04:01:34.533Z,-1.59
2017-01-23T04:02:34.542Z,-1.55
2017-01-23T04:03:34.557Z,-1.58
2017-01-23T04:04:34.570Z,-1.7
2017-01-23T04:05:34.586Z,-1.66
2017-01-23T04:06:34.596Z,-1.56
2017-01-23T04:07:34.609Z,-1.55
2017-01-23T04:08:34.628Z,-1.64
2017-01-23T04:09:34.637Z,-1.58
2017-01-23T04:10:34.648Z,-1.64
2017-01-23T04:11:34.658Z,-1.74
2017-01-23T04:12:34.672Z,-1.74
2017-01-23T04:13:34.686Z,-1.66
2017-01-23T04:14:34.699Z,-1.7
2017-01-23T04:15:34.710Z,-1.62
2017-01-23T04:16:34.727Z,-1.52
2017-01-23T04:18:34.750Z,-1.45
2017-01-23T04:19:49.681Z,-1.43
2017-01-23T04:20:49.693Z,-1.38
2017-01-23T04:21:34.786Z,-1.43
2017-01-23T04:22:34.802Z,-1.48
2017-01-23T04:23:34.816Z,-1.48
2017-01-23T04:24:34.829Z,-1.46
2017-01-23T04:25:49.758Z,-1.52
2017-01-23T04:26:34.883Z,-1.45
2017-01-23T04:27:34.867Z,-1.43
2017-01-23T04:29:34.896Z,-1.3
2017-01-23T04:30:34.908Z,-1.34
2017-01-23T04:31:34.918Z,-1.2
2017-01-23T04:32:34.967Z,-1.28
2017-01-23T04:34:34.962Z,-1.2
2017-01-23T04:35:34.971Z,-1.25
2017-01-23T04:36:34.983Z,-1.17
2017-01-23T04:37:34.998Z,-1.09
2017-01-23T04:38:35.009Z,-1.28
2017-01-23T04:39:35.023Z,-1.3
2017-01-23T04:40:35.039Z,-1.28
2017-01-23T04:41:49.966Z,-1.35
2017-01-23T04:42:35.089Z,-1.35
2017-01-23T04:43:35.073Z,-1.41
2017-01-23T04:44:35.086Z,-1.37
2017-01-23T04:45:35.101Z,-1.43
2017-01-23T04:46:35.114Z,-1.37
2017-01-23T04:47:35.125Z,-1.33
2017-01-23T04:48:35.289Z,-1.35
2017-01-23T04:49:35.153Z,-1.33
2017-01-23T04:50:35.163Z,-1.25
2017-01-23T04:51:35.179Z,-1.28
2017-01-23T04:52:35.190Z,-1.4
2017-01-23T04:53:50.121Z,-1.41
2017-01-23T04:54:35.221Z,-1.43
2017-01-23T04:55:35.230Z,-1.37
2017-01-23T04:56:35.246Z,-1.15
2017-01-23T04:57:50.172Z,-1.25
2017-01-23T04:58:35.269Z,-1.31
2017-01-23T04:59:35.279Z,-1.51
2017-01-23T05:00:35.299Z,-1.41
2017-01-23T05:01:35.308Z,-1.34
2017-01-23T05:02:35.326Z,-1.3
2017-01-23T05:04:35.347Z,-1.31
2017-01-23T05:05:35.360Z,-1.3
2017-01-23T05:06:35.393Z,-1.22
2017-01-23T05:07:50.305Z,-1.25
2017-01-23T05:08:35.399Z,-1.4
2017-01-23T05:10:35.423Z,-1.28
2017-01-23T05:11:35.440Z,-1.33
2017-01-23T05:12:35.451Z,-1.41
2017-01-23T05:13:50.382Z,-1.28
2017-01-23T05:14:35.485Z,-1.19
2017-01-23T05:15:35.491Z,-1.23
2017-01-23T05:16:35.502Z,-1.27
2017-01-23T05:17:35.517Z,-1.38
2017-01-23T05:18:35.534Z,-1.38
2017-01-23T05:20:50.776Z,-1.35
2017-01-23T05:21:35.568Z,-1.34
2017-01-23T05:22:35.580Z,-1.41
2017-01-23T05:23:35.594Z,-1.48
2017-01-23T05:24:35.607Z,-1.52
2017-01-23T05:25:35.620Z,-1.45
2017-01-23T05:26:35.637Z,-1.51
2017-01-23T05:27:35.651Z,-1.48
2017-01-23T05:28:50.580Z,-1.52
2017-01-23T05:29:35.674Z,-1.51
2017-01-23T05:30:35.694Z,-1.45
2017-01-23T05:31:35.698Z,-1.48
2017-01-23T05:32:35.715Z,-1.51
2017-01-23T05:33:35.725Z,-1.61
2017-01-23T05:36:36.152Z,-1.51
2017-01-23T05:37:35.779Z,-1.41
2017-01-23T05:38:35.790Z,-1.54
2017-01-23T05:39:35.809Z,-1.46
2017-01-23T05:40:35.816Z,-1.4
2017-01-23T05:41:35.834Z,-1.38
2017-01-23T05:42:35.841Z,-1.4
2017-01-23T05:43:35.856Z,-1.51
2017-01-23T05:44:35.872Z,-1.41
2017-01-23T05:45:35.882Z,-1.31
2017-01-23T05:46:35.894Z,-1.3
2017-01-23T05:47:35.908Z,-1.34
2017-01-23T05:48:35.922Z,-1.28
2017-01-23T05:49:35.936Z,-1.45
2017-01-23T05:51:35.959Z,-1.37
2017-01-23T05:52:35.972Z,-1.46
2017-01-23T05:53:35.986Z,-1.43
2017-01-23T05:54:35.997Z,-1.41
2017-01-23T05:55:36.011Z,-1.3
2017-01-23T05:56:36.021Z,-1.38
2017-01-23T05:57:36.035Z,-1.31
2017-01-23T05:58:36.049Z,-1.17
2017-01-23T05:59:36.066Z,-1.17
2017-01-23T06:00:50.992Z,-1.09
2017-01-23T06:01:36.091Z,-1.16
2017-01-23T06:02:36.102Z,-1.17
2017-01-23T06:03:36.113Z,-1.25
2017-01-23T06:04:36.127Z,-1.3
2017-01-23T06:05:36.144Z,-1.52
2017-01-23T06:07:36.167Z,-1.4
2017-01-23T06:08:51.099Z,-1.34
2017-01-23T06:09:36.205Z,-1.33
2017-01-23T06:10:36.208Z,-1.23
2017-01-23T06:11:51.134Z,-1.34
2017-01-23T06:12:36.232Z,-1.3
2017-01-23T06:13:36.243Z,-1.4
2017-01-23T06:14:36.258Z,-1.37
2017-01-23T06:15:36.269Z,-1.31
2017-01-23T06:16:51.200Z,-1.31
2017-01-23T06:17:36.296Z,-1.34
2017-01-23T06:18:36.311Z,-1.37
2017-01-23T06:19:36.323Z,-1.34
2017-01-23T06:20:36.334Z,-1.28
2017-01-23T06:21:36.740Z,-1.3
2017-01-23T06:22:36.361Z,-1.22
2017-01-23T06:23:36.399Z,-1.33
2017-01-23T06:24:36.386Z,-1.3
2017-01-23T06:25:36.399Z,-1.19
2017-01-23T06:26:36.416Z,-1.19
2017-01-23T06:27:51.341Z,-1.27
2017-01-23T06:28:51.355Z,-1.19
2017-01-23T06:29:51.367Z,-1.16
2017-01-23T06:30:36.465Z,-1.15
2017-01-23T06:31:36.476Z,-1.17
2017-01-23T06:32:51.413Z,-1.15
2017-01-23T06:33:36.502Z,-1.12
2017-01-23T06:34:36.515Z,-1.12
2017-01-23T06:35:36.528Z,-1.07
2017-01-23T06:37:36.559Z,-1.17
2017-01-23T06:38:36.567Z,-1.19
2017-01-23T06:39:36.584Z,-1.16
2017-01-23T06:40:36.596Z,-1.05
2017-01-23T06:41:36.616Z,-1.02
2017-01-23T06:42:36.620Z,-1.12
2017-01-23T06:43:36.633Z,-1.16
2017-01-23T06:44:36.724Z,-1.15
2017-01-23T06:45:36.662Z,-1.01
2017-01-23T06:46:36.671Z,-1.04
2017-01-23T06:47:36.686Z,-1.09
2017-01-23T06:48:51.616Z,-1.04
2017-01-23T06:49:36.713Z,-1.1
2017-01-23T06:50:36.741Z,-0.97
2017-01-23T06:51:36.735Z,-0.98
2017-01-23T06:52:36.750Z,-0.98
2017-01-23T06:53:36.764Z,-1.01
2017-01-23T06:54:36.801Z,-0.99
2017-01-23T06:55:36.789Z,-0.98
2017-01-23T06:56:36.804Z,-1.09
2017-01-23T06:57:36.815Z,-1.02
2017-01-23T06:58:36.830Z,-0.98
2017-01-23T06:59:51.758Z,-0.99
2017-01-23T07:00:36.858Z,-0.95
2017-01-23T07:01:36.867Z,-0.98
2017-01-23T07:02:36.902Z,-0.95
2017-01-23T07:03:51.812Z,-0.99
2017-01-23T07:04:37.296Z,-0.97
2017-01-23T07:05:36.920Z,-0.99
2017-01-23T07:06:36.936Z,-0.95
2017-01-23T07:07:36.948Z,-1.04
2017-01-23T07:08:36.963Z,-0.97
2017-01-23T07:09:36.974Z,-1.13
2017-01-23T07:10:36.989Z,-0.99
2017-01-23T07:11:37.009Z,-0.97
2017-01-23T07:12:51.934Z,-0.86
2017-01-23T07:13:37.024Z,-0.86
2017-01-23T07:14:37.047Z,-0.89
2017-01-23T07:15:37.053Z,-0.95
2017-01-23T07:16:51.983Z,-0.94
2017-01-23T07:17:37.082Z,-0.95
2017-01-23T07:18:37.094Z,-0.97
2017-01-23T07:19:37.105Z,-0.97
2017-01-23T07:20:37.121Z,-0.92
2017-01-23T07:21:37.136Z,-0.94
2017-01-23T07:22:37.145Z,-0.98
2017-01-23T07:23:37.158Z,-0.92
2017-01-23T07:24:37.178Z,-0.92
2017-01-23T07:26:52.119Z,-0.7
2017-01-23T07:27:37.208Z,-0.82
2017-01-23T07:28:37.225Z,-0.79
2017-01-23T07:29:37.238Z,-0.85
2017-01-23T07:30:37.251Z,-0.75
2017-01-23T07:31:52.180Z,-0.79
2017-01-23T07:32:37.284Z,-0.79
2017-01-23T07:33:37.291Z,-0.83
2017-01-23T07:34:37.303Z,-0.78
2017-01-23T07:35:52.236Z,-0.79
2017-01-23T07:36:37.329Z,-0.76
2017-01-23T07:37:37.344Z,-0.82
2017-01-23T07:39:37.370Z,-0.69
2017-01-23T07:40:37.382Z,-0.62
2017-01-23T07:42:37.460Z,-0.73
2017-01-23T07:43:37.420Z,-0.65
2017-01-23T07:44:37.436Z,-0.7
2017-01-23T07:45:37.449Z,-0.67
2017-01-23T07:46:52.378Z,-0.79
2017-01-23T07:47:37.474Z,-0.69
2017-01-23T07:48:37.489Z,-0.72
2017-01-23T07:49:37.509Z,-0.76
2017-01-23T07:50:37.516Z,-0.72
2017-01-23T07:51:52.448Z,-0.61
2017-01-23T07:52:37.541Z,-0.79
2017-01-23T07:53:37.558Z,-0.76
2017-01-23T07:55:37.587Z,-1.02
2017-01-23T07:57:37.607Z,-0.95
2017-01-23T07:58:37.624Z,-0.99
2017-01-23T07:59:37.633Z,-1.02
2017-01-23T08:00:37.647Z,-1.1
2017-01-23T08:01:37.666Z,-1.07
2017-01-23T08:02:52.591Z,-0.92
2017-01-23T08:03:37.687Z,-0.92
2017-01-23T08:04:37.702Z,-0.82
2017-01-23T08:05:37.712Z,-0.89
2017-01-23T08:06:37.726Z,-0.91
2017-01-23T08:07:52.660Z,-0.78
2017-01-23T08:08:37.752Z,-0.72
2017-01-23T08:09:37.765Z,-0.67
2017-01-23T08:10:37.781Z,-0.72
2017-01-23T08:11:37.790Z,-0.7
2017-01-23T08:12:37.810Z,-0.6
2017-01-23T08:13:37.820Z,-0.4
2017-01-23T08:15:37.847Z,-0.42
2017-01-23T08:16:37.865Z,-0.46
2017-01-23T08:17:52.790Z,-0.51
2017-01-23T08:18:37.886Z,-0.55
2017-01-23T08:19:52.815Z,-0.79
2017-01-23T08:20:37.911Z,-0.78
2017-01-23T08:21:37.924Z,-0.79
2017-01-23T08:22:37.939Z,-0.91
2017-01-23T08:23:52.867Z,-0.89
2017-01-23T08:24:37.965Z,-0.85
2017-01-23T08:25:37.977Z,-0.92
2017-01-23T08:26:37.993Z,-0.91
2017-01-23T08:27:38.004Z,-0.94
2017-01-23T08:28:38.021Z,-0.97
2017-01-23T08:29:38.033Z,-0.86
2017-01-23T08:30:38.043Z,-0.83
2017-01-23T08:31:38.058Z,-0.97
2017-01-23T08:32:38.072Z,-0.85
2017-01-23T08:33:38.082Z,-0.79
2017-01-23T08:34:38.486Z,-0.61
2017-01-23T08:35:53.025Z,-0.62
2017-01-23T08:36:38.122Z,-0.58
2017-01-23T08:37:38.138Z,-0.51
2017-01-23T08:38:53.086Z,-0.44
2017-01-23T08:39:38.164Z,-0.43
2017-01-23T08:40:38.176Z,-0.43
2017-01-23T08:42:38.203Z,-0.43
2017-01-23T08:45:38.633Z,-0.43
2017-01-23T08:46:38.255Z,-0.42
2017-01-23T08:47:38.265Z,-0.57
2017-01-23T08:48:53.197Z,-0.43
2017-01-23T08:49:38.298Z,-0.47
2017-01-23T08:50:38.696Z,-0.43
2017-01-23T08:51:53.236Z,-0.39
2017-01-23T08:52:38.337Z,-0.33
2017-01-23T08:53:38.733Z,-0.42
2017-01-23T08:54:38.361Z,-0.34
2017-01-23T08:55:38.373Z,-0.39
2017-01-23T08:56:38.388Z,-0.4
2017-01-23T08:57:38.399Z,-0.42
2017-01-23T08:58:38.448Z,-0.65
2017-01-23T08:59:38.425Z,-0.78
2017-01-23T09:00:38.444Z,-0.8
2017-01-23T09:01:38.454Z,-0.82
2017-01-23T09:02:38.466Z,-0.62
2017-01-23T09:03:38.482Z,-0.72
2017-01-23T09:04:38.496Z,-0.6
2017-01-23T09:05:53.423Z,-0.64
2017-01-23T09:06:38.517Z,-0.64
2017-01-23T09:07:38.531Z,-0.75
2017-01-23T09:08:38.544Z,-0.95
2017-01-23T09:09:38.559Z,-0.94
2017-01-23T09:10:53.489Z,-0.89
2017-01-23T09:11:38.584Z,-0.94
2017-01-23T09:12:38.597Z,-0.85
2017-01-23T09:13:38.611Z,-1.02
2017-01-23T09:14:38.626Z,-0.92
2017-01-23T09:15:38.643Z,-0.94
2017-01-23T09:16:38.650Z,-0.92
2017-01-23T09:17:38.672Z,-0.67
2017-01-23T09:18:38.678Z,-0.94
2017-01-23T09:19:38.692Z,-0.82
2017-01-23T09:20:38.704Z,-0.8
2017-01-23T09:21:38.721Z,-0.95
2017-01-23T09:22:38.735Z,-0.99
2017-01-23T09:23:38.746Z,-1.07
2017-01-23T09:24:38.762Z,-0.99
2017-01-23T09:25:38.775Z,-0.94
2017-01-23T09:26:53.700Z,-0.83
2017-01-23T09:27:38.799Z,-0.92
2017-01-23T09:28:38.813Z,-0.83
2017-01-23T09:29:38.849Z,-0.78
2017-01-23T09:30:38.836Z,-0.8
2017-01-23T09:31:38.850Z,-0.82
2017-01-23T09:32:38.867Z,-0.76
2017-01-23T09:33:38.874Z,-0.86
2017-01-23T09:34:38.898Z,-0.91
2017-01-23T09:35:53.822Z,-0.89
2017-01-23T09:36:53.834Z,-0.82
2017-01-23T09:37:38.930Z,-0.65
2017-01-23T09:38:38.946Z,-0.54
2017-01-23T09:39:38.954Z,-0.49
2017-01-23T09:40:38.971Z,-0.42
2017-01-23T09:41:38.983Z,-0.49
2017-01-23T09:42:53.911Z,-0.51
2017-01-23T09:43:39.008Z,-0.49
2017-01-23T09:44:39.023Z,-0.52
2017-01-23T09:45:39.041Z,-0.54
2017-01-23T09:46:39.051Z,-0.65
2017-01-23T09:47:39.061Z,-0.62
2017-01-23T09:49:39.089Z,-0.65
2017-01-23T09:50:39.105Z,-0.67
2017-01-23T09:51:39.114Z,-0.57
2017-01-23T09:52:39.131Z,-0.62
2017-01-23T09:53:39.144Z,-0.69
2017-01-23T09:54:54.071Z,-0.76
2017-01-23T09:55:39.169Z,-0.7
2017-01-23T09:56:39.182Z,-0.78
2017-01-23T09:57:39.195Z,-0.95
2017-01-23T09:58:54.128Z,-1.04
2017-01-23T09:59:39.224Z,-0.94
2017-01-23T10:00:39.235Z,-0.95
2017-01-23T10:01:39.248Z,-0.98
2017-01-23T10:02:39.266Z,-0.95
2017-01-23T10:04:39.287Z,-0.95
2017-01-23T10:05:39.300Z,-0.85
2017-01-23T10:07:39.328Z,-0.91
2017-01-23T10:08:39.339Z,-0.85
2017-01-23T10:09:39.354Z,-0.92
2017-01-23T10:10:39.368Z,-0.92
2017-01-23T10:11:39.379Z,-0.82
2017-01-23T10:12:39.393Z,-0.79
2017-01-23T10:13:54.325Z,-0.65
2017-01-23T10:14:39.422Z,-0.67
2017-01-23T10:15:39.434Z,-0.69
2017-01-23T10:16:39.478Z,-0.72
2017-01-23T10:17:39.460Z,-0.72
2017-01-23T10:18:39.473Z,-0.65
2017-01-23T10:19:39.485Z,-0.55
2017-01-23T10:20:39.502Z,-0.55
2017-01-23T10:21:39.542Z,-0.57
2017-01-23T10:22:39.536Z,-0.55
2017-01-23T10:23:54.457Z,-0.36
2017-01-23T10:24:39.582Z,-0.4
2017-01-23T10:25:39.570Z,-0.34
2017-01-23T10:26:39.579Z,-0.43
2017-01-23T10:27:39.593Z,-0.4
2017-01-23T10:28:39.606Z,-0.33
2017-01-23T10:29:39.622Z,-0.36
2017-01-23T10:30:39.635Z,-0.39
2017-01-23T10:31:39.650Z,-0.37
2017-01-23T10:33:39.674Z,-0.7
2017-01-23T10:34:39.688Z,-0.61
2017-01-23T10:36:39.713Z,-0.57
2017-01-23T10:37:39.729Z,-0.65
2017-01-23T10:38:39.741Z,-0.86
2017-01-23T10:39:39.752Z,-0.62
2017-01-23T10:40:39.778Z,-0.65
2017-01-23T10:41:39.800Z,-0.67
2017-01-23T10:42:39.798Z,-0.67
2017-01-23T10:43:39.805Z,-0.64
2017-01-23T10:44:39.823Z,-0.57
2017-01-23T10:45:54.751Z,-0.61
2017-01-23T10:46:39.853Z,-0.52
2017-01-23T10:47:39.870Z,-0.62
2017-01-23T10:48:39.872Z,-0.67
2017-01-23T10:49:39.888Z,-0.72
2017-01-23T10:50:39.901Z,-0.76
2017-01-23T10:51:39.912Z,-0.67
2017-01-23T10:52:39.929Z,-0.61
2017-01-23T10:53:39.940Z,-0.55
2017-01-23T10:54:39.955Z,-0.61
2017-01-23T10:55:39.966Z,-0.61
2017-01-23T10:56:40.002Z,-0.65
2017-01-23T10:57:40.000Z,-0.75
2017-01-23T10:59:40.018Z,-0.62
2017-01-23T11:00:40.032Z,-0.58
2017-01-23T11:01:54.962Z,-0.54
2017-01-23T11:02:40.059Z,-0.39
2017-01-23T11:03:40.072Z,-0.37
2017-01-23T11:04:40.386Z,-0.42
2017-01-23T11:05:40.108Z,-0.52
2017-01-23T11:06:40.110Z,-0.54
2017-01-23T11:07:40.130Z,-0.49
2017-01-23T11:08:40.160Z,-0.42
2017-01-23T11:09:40.155Z,-0.43
2017-01-23T11:10:40.172Z,-0.44
2017-01-23T11:11:55.097Z,-0.29
2017-01-23T11:12:40.194Z,-0.4
2017-01-23T11:13:40.208Z,-0.39
2017-01-23T11:14:40.221Z,-0.23
2017-01-23T11:15:40.235Z,-0.18
2017-01-23T11:16:40.245Z,-0.15
2017-01-23T11:17:55.176Z,-0.29
2017-01-23T11:18:40.275Z,-0.4
2017-01-23T11:19:40.286Z,-0.34
2017-01-23T11:20:40.299Z,-0.28
2017-01-23T11:21:40.311Z,-0.33
2017-01-23T11:22:40.328Z,-0.4
2017-01-23T11:23:40.337Z,-0.34
2017-01-23T11:24:40.354Z,-0.55
2017-01-23T11:25:40.376Z,-0.47
2017-01-23T11:27:40.394Z,-0.6
2017-01-23T11:28:40.404Z,-0.64
2017-01-23T11:29:40.422Z,-0.6
2017-01-23T11:30:40.434Z,-0.42
2017-01-23T11:31:40.448Z,-0.28
2017-01-23T11:32:40.458Z,-0.36
2017-01-23T11:33:55.390Z,-0.36
2017-01-23T11:34:40.488Z,-0.33
2017-01-23T11:35:40.500Z,-0.22
2017-01-23T11:36:40.512Z,-0.19
2017-01-23T11:37:40.527Z,-0.31
2017-01-23T11:39:40.584Z,-0.14
2017-01-23T11:41:40.581Z,0.02
2017-01-23T11:42:40.593Z,0.14
2017-01-23T11:43:40.603Z,0.14
2017-01-23T11:44:40.619Z,0.04
2017-01-23T11:45:55.549Z,0.1
2017-01-23T11:46:41.032Z,0.08
2017-01-23T11:47:40.661Z,0.03
2017-01-23T11:48:55.592Z,0.21
2017-01-23T11:49:40.689Z,0.17
2017-01-23T11:50:40.700Z,0.18
2017-01-23T11:51:40.716Z,0.03
2017-01-23T11:52:40.727Z,0.04
2017-01-23T11:53:40.740Z,0.1
2017-01-23T11:54:40.754Z,-0.03
2017-01-23T11:57:40.797Z,0
2017-01-23T11:58:55.728Z,0.02
2017-01-23T11:59:40.823Z,0.03
2017-01-23T12:00:40.839Z,0.03
2017-01-23T12:01:40.855Z,0.02
2017-01-23T12:02:40.867Z,-0.19
2017-01-23T12:03:40.883Z,-0.08
2017-01-23T12:04:40.892Z,0
2017-01-23T12:05:40.910Z,-0.14
2017-01-23T12:06:40.920Z,-0.11
2017-01-23T12:07:40.933Z,-0.07
2017-01-23T12:08:40.947Z,-0.04
2017-01-23T12:09:40.962Z,-0.07
2017-01-23T12:10:40.972Z,-0.04
2017-01-23T12:12:41.000Z,0.14
2017-01-23T12:13:41.013Z,0.15
2017-01-23T12:14:41.027Z,0.23
2017-01-23T12:15:41.044Z,0.14
2017-01-23T12:16:41.053Z,0.2
2017-01-23T12:17:41.070Z,0.17
2017-01-23T12:18:41.086Z,0.15
2017-01-23T12:19:41.097Z,0.1
2017-01-23T12:20:56.029Z,0.03
2017-01-23T12:21:41.121Z,-0.05
2017-01-23T12:22:41.141Z,0.07
2017-01-23T12:23:41.157Z,0.08
2017-01-23T12:24:41.189Z,-0.01
2017-01-23T12:27:41.219Z,0.04
2017-01-23T12:28:41.219Z,0.03
2017-01-23T12:29:41.260Z,0.11
2017-01-23T12:30:41.245Z,0.14
2017-01-23T12:31:41.261Z,0.21
2017-01-23T12:32:56.190Z,-0.03
2017-01-23T12:33:41.295Z,-0.14
2017-01-23T12:34:41.300Z,-0.15
2017-01-23T12:35:41.314Z,-0.15
2017-01-23T12:36:56.270Z,-0.36
2017-01-23T12:37:41.343Z,-0.37
2017-01-23T12:38:41.361Z,-0.34
2017-01-23T12:39:41.371Z,-0.26
2017-01-23T12:40:41.384Z,-0.22
2017-01-23T12:42:41.408Z,0.02
2017-01-23T12:43:41.451Z,0.04
2017-01-23T12:44:41.436Z,0.08
2017-01-23T12:45:41.449Z,0
2017-01-23T12:46:41.462Z,-0.08
2017-01-23T12:47:41.474Z,0.04
2017-01-23T12:48:56.406Z,0.14
2017-01-23T12:49:41.505Z,0.11
2017-01-23T12:50:41.520Z,0.13
2017-01-23T12:51:41.530Z,0.2
2017-01-23T12:52:56.462Z,0.23
2017-01-23T12:53:41.558Z,0.17
2017-01-23T12:54:41.569Z,0.17
2017-01-23T12:55:41.584Z,0.26
2017-01-23T12:56:41.605Z,0.23
2017-01-23T12:57:41.611Z,0.24
2017-01-23T12:58:41.628Z,0.18
2017-01-23T12:59:41.643Z,0.28
2017-01-23T13:00:41.655Z,0.32
2017-01-23T13:01:41.669Z,0.31
2017-01-23T13:02:42.068Z,0.35
2017-01-23T13:03:56.614Z,0.03
2017-01-23T13:04:41.709Z,0.02
2017-01-23T13:05:41.721Z,0.07
2017-01-23T13:06:41.740Z,0.07
2017-01-23T13:07:41.750Z,0.21
2017-01-23T13:08:56.680Z,0.14
2017-01-23T13:09:41.781Z,0.17
2017-01-23T13:10:41.800Z,0.15
2017-01-23T13:11:41.806Z,-0.07
2017-01-23T13:12:41.819Z,-0.1
2017-01-23T13:13:41.835Z,-0.15
2017-01-23T13:14:41.843Z,-0.01
2017-01-23T13:15:41.858Z,-0.05
2017-01-23T13:16:41.876Z,-0.36
2017-01-23T13:17:41.890Z,-0.34
2017-01-23T13:18:41.899Z,-0.37
2017-01-23T13:19:41.914Z,-0.36
2017-01-23T13:20:41.932Z,-0.28
2017-01-23T13:21:41.943Z,-0.16
2017-01-23T13:22:41.954Z,-0.23
2017-01-23T13:23:56.886Z,-0.04
2017-01-23T13:24:41.983Z,-0.15
2017-01-23T13:25:42.026Z,-0.22
2017-01-23T13:26:42.010Z,-0.1
2017-01-23T13:27:42.025Z,-0.18
2017-01-23T13:28:42.037Z,-0.21
2017-01-23T13:29:42.051Z,-0.14
2017-01-23T13:30:42.063Z,-0.26
2017-01-23T13:31:42.080Z,-0.39
2017-01-23T13:32:42.094Z,-0.42
2017-01-23T13:33:42.109Z,-0.36
2017-01-23T13:34:42.119Z,-0.51
2017-01-23T13:35:42.135Z,-0.65
2017-01-23T13:36:57.063Z,-0.47
2017-01-23T13:37:42.161Z,-0.37
2017-01-23T13:38:42.174Z,-0.4
2017-01-23T13:39:42.186Z,-0.22
2017-01-23T13:41:42.215Z,-0.18
2017-01-23T13:42:42.223Z,-0.28
2017-01-23T13:43:42.240Z,-0.19
2017-01-23T13:44:42.250Z,-0.22
2017-01-23T13:45:42.270Z,-0.1
2017-01-23T13:46:42.281Z,-0.16
2017-01-23T13:47:42.290Z,-0.11
2017-01-23T13:48:57.225Z,-0.11
2017-01-23T13:49:42.317Z,-0.01
2017-01-23T13:50:42.335Z,-0.07
2017-01-23T13:51:57.263Z,-0.15
2017-01-23T13:52:42.361Z,-0.16